PANC

Ted Stevens Anchorage International Airport

Code ICAO PANC
Code IATA ANC
Nom Ted Stevens Anchorage International Airport
Emplacement Anchorage, Alaska, US
Élévation 152 pieds / 46.3 mètres
Latitude 61.17440033
Longitude -149.99600220
METAR PANC 170953Z 15008KT 10SM FEW080 SCT110 09/00 A2971 RMK AO2 SLP062 T00890000
Informations extras Afficher NOTAMS
Afficher cartes
Piste Longueur Largeur Surface Élévation
07L 10600 ft 150 ft ASP 128 ft
07R 10900 ft 150 ft ASP 130 ft
15 11584 ft 150 ft ASP 151 ft
25R 10600 ft 150 ft ASP 92 ft
25L 10900 ft 150 ft ASP 100 ft
33 11584 ft 150 ft ASP 121 ft